createdAt,value
2018-01-10T00:00:25.091Z,66.70
2018-01-10T00:00:58.765Z,67.00
2018-01-10T00:01:32.438Z,67.00
2018-01-10T00:02:06.216Z,67.40
2018-01-10T00:02:40.663Z,66.40
2018-01-10T00:03:14.333Z,66.30
2018-01-10T00:03:48.023Z,66.40
2018-01-10T00:04:21.709Z,66.30
2018-01-10T00:04:55.381Z,66.30
2018-01-10T00:05:29.846Z,65.80
2018-01-10T00:06:03.537Z,65.50
2018-01-10T00:06:37.226Z,66.30
2018-01-10T00:07:10.908Z,66.10
2018-01-10T00:07:44.569Z,66.10
2018-01-10T00:08:18.241Z,65.90
2018-01-10T00:08:52.691Z,66.50
2018-01-10T00:09:26.554Z,65.90
2018-01-10T00:10:00.224Z,65.30
2018-01-10T00:10:34.692Z,65.70
2018-01-10T00:11:08.362Z,65.90
2018-01-10T00:11:42.039Z,66.20
2018-01-10T00:12:15.700Z,66.10
2018-01-10T00:12:50.129Z,65.50
2018-01-10T00:13:23.817Z,65.40
2018-01-10T00:13:57.520Z,66.00
2018-01-10T00:14:31.222Z,65.50
2018-01-10T00:15:04.893Z,65.90
2018-01-10T00:15:38.598Z,66.00
2018-01-10T00:16:12.262Z,65.30
2018-01-10T00:16:45.940Z,65.50
2018-01-10T00:17:20.380Z,65.20
2018-01-10T00:17:54.055Z,64.90
2018-01-10T00:18:27.738Z,65.20
2018-01-10T00:19:01.409Z,65.30
2018-01-10T00:19:35.843Z,65.40
2018-01-10T00:20:09.527Z,65.10
2018-01-10T00:20:43.228Z,66.00
2018-01-10T00:21:16.579Z,64.80
2018-01-10T00:21:51.037Z,66.30
2018-01-10T00:22:24.762Z,66.00
2018-01-10T00:22:58.443Z,65.00
2018-01-10T00:23:32.144Z,66.00
2018-01-10T00:24:05.824Z,66.20
2018-01-10T00:24:39.498Z,65.50
2018-01-10T00:25:13.174Z,65.50
2018-01-10T00:25:46.866Z,65.40
2018-01-10T00:26:20.539Z,65.60
2018-01-10T00:26:54.221Z,66.40
2018-01-10T00:27:27.901Z,67.10
2018-01-10T00:28:02.556Z,66.30
2018-01-10T00:28:36.251Z,65.60
2018-01-10T00:29:09.933Z,65.70
2018-01-10T00:29:43.610Z,65.60
2018-01-10T00:30:17.304Z,66.20
2018-01-10T00:30:51.170Z,66.10
2018-01-10T00:31:25.614Z,66.70
2018-01-10T00:31:59.293Z,66.70
2018-01-10T00:32:32.977Z,65.50
2018-01-10T00:33:06.645Z,65.70
2018-01-10T00:33:40.313Z,66.00
2018-01-10T00:34:14.761Z,66.80
2018-01-10T00:34:48.433Z,65.90
2018-01-10T00:35:22.882Z,66.00
2018-01-10T00:35:56.585Z,65.90
2018-01-10T00:36:30.254Z,66.40
2018-01-10T00:37:03.926Z,66.40
2018-01-10T00:37:37.668Z,66.20
2018-01-10T00:38:11.326Z,66.40
2018-01-10T00:38:44.998Z,65.90
2018-01-10T00:39:18.669Z,66.10
2018-01-10T00:39:52.337Z,66.40
2018-01-10T00:40:26.790Z,66.20
2018-01-10T00:41:00.491Z,66.10
2018-01-10T00:41:34.164Z,66.60
2018-01-10T00:42:07.839Z,66.60
2018-01-10T00:42:41.515Z,67.30
2018-01-10T00:43:15.959Z,67.10
2018-01-10T00:43:49.684Z,66.70
2018-01-10T00:44:23.356Z,66.80
2018-01-10T00:44:57.032Z,67.30
2018-01-10T00:45:30.714Z,66.50
2018-01-10T00:46:04.435Z,66.70
2018-01-10T00:46:38.102Z,67.10
2018-01-10T00:47:11.767Z,67.40
2018-01-10T00:47:45.812Z,67.10
2018-01-10T00:48:19.479Z,67.30
2018-01-10T00:48:53.213Z,66.60
2018-01-10T00:49:27.662Z,66.30
2018-01-10T00:50:01.338Z,66.70
2018-01-10T00:50:35.021Z,66.50
2018-01-10T00:51:08.716Z,67.80
2018-01-10T00:51:42.400Z,68.20
2018-01-10T00:52:16.839Z,67.60
2018-01-10T00:52:50.500Z,67.20
2018-01-10T00:53:24.160Z,67.60
2018-01-10T00:53:57.815Z,68.10
2018-01-10T00:54:31.490Z,67.90
2018-01-10T00:55:05.159Z,67.70
2018-01-10T00:55:38.824Z,67.00
2018-01-10T00:56:12.542Z,67.20
2018-01-10T00:56:46.228Z,67.30
2018-01-10T00:57:19.899Z,68.90
2018-01-10T00:57:54.323Z,68.00
2018-01-10T00:58:28.761Z,67.60
2018-01-10T00:59:02.438Z,67.60
2018-01-10T00:59:36.130Z,67.80
2018-01-10T01:00:09.820Z,68.10
2018-01-10T01:00:43.174Z,67.10
2018-01-10T01:01:17.302Z,67.20
2018-01-10T01:01:50.996Z,67.00
2018-01-10T01:02:24.666Z,67.90
2018-01-10T01:02:58.342Z,67.60
2018-01-10T01:03:32.818Z,67.70
2018-01-10T01:04:06.484Z,66.70
2018-01-10T01:04:40.158Z,67.90
2018-01-10T01:05:13.830Z,67.10
2018-01-10T01:05:47.490Z,67.30
2018-01-10T01:06:21.202Z,67.30
2018-01-10T01:06:55.650Z,67.60
2018-01-10T01:07:29.322Z,67.60
2018-01-10T01:08:03.014Z,67.90
2018-01-10T01:08:36.693Z,68.20
2018-01-10T01:09:10.378Z,68.00
2018-01-10T01:09:44.082Z,67.90
2018-01-10T01:10:17.759Z,68.10
2018-01-10T01:10:51.441Z,67.70
2018-01-10T01:11:25.922Z,68.50
2018-01-10T01:11:59.604Z,67.30
2018-01-10T01:12:33.326Z,67.30
2018-01-10T01:13:07.765Z,67.10
2018-01-10T01:13:41.526Z,67.40
2018-01-10T01:14:15.211Z,66.90
2018-01-10T01:14:49.673Z,67.60
2018-01-10T01:15:23.022Z,67.00
2018-01-10T01:15:56.710Z,68.30
2018-01-10T01:16:30.420Z,67.20
2018-01-10T01:17:03.766Z,67.70
2018-01-10T01:17:38.212Z,67.10
2018-01-10T01:18:11.878Z,67.20
2018-01-10T01:18:45.555Z,67.60
2018-01-10T01:19:19.250Z,67.20
2018-01-10T01:19:52.930Z,67.40
2018-01-10T01:20:27.375Z,67.60
2018-01-10T01:21:01.055Z,67.30
2018-01-10T01:21:34.807Z,67.90
2018-01-10T01:22:08.614Z,67.20
2018-01-10T01:22:42.292Z,67.60
2018-01-10T01:23:16.736Z,67.80
2018-01-10T01:23:50.414Z,67.40
2018-01-10T01:24:24.082Z,67.30
2018-01-10T01:24:58.511Z,67.40
2018-01-10T01:25:32.189Z,67.70
2018-01-10T01:26:05.875Z,68.10
2018-01-10T01:26:40.349Z,67.90
2018-01-10T01:27:14.010Z,67.60
2018-01-10T01:27:47.691Z,67.90
2018-01-10T01:28:21.366Z,68.10
2018-01-10T01:28:55.034Z,68.30
2018-01-10T01:29:29.484Z,69.20
2018-01-10T01:30:03.155Z,69.10
2018-01-10T01:30:36.836Z,68.70
2018-01-10T01:31:11.271Z,68.40
2018-01-10T01:31:44.987Z,68.50
2018-01-10T01:32:18.665Z,68.60
2018-01-10T01:32:52.338Z,68.80
2018-01-10T01:33:26.006Z,68.60
2018-01-10T01:33:59.702Z,68.80
2018-01-10T01:34:33.365Z,69.00
2018-01-10T01:35:07.793Z,69.00
2018-01-10T01:35:41.482Z,69.90
2018-01-10T01:36:15.174Z,69.70
2018-01-10T01:36:48.882Z,69.60
2018-01-10T01:37:22.549Z,70.00
2018-01-10T01:37:56.246Z,70.10
2018-01-10T01:38:29.945Z,70.00
2018-01-10T01:39:03.106Z,68.70
2018-01-10T01:39:36.980Z,69.30
2018-01-10T01:40:11.425Z,68.90
2018-01-10T01:40:45.099Z,68.80
2018-01-10T01:41:18.790Z,68.70
2018-01-10T01:41:52.506Z,68.80
2018-01-10T01:42:26.258Z,70.40
2018-01-10T01:43:00.701Z,69.80
2018-01-10T01:43:34.365Z,69.30
2018-01-10T01:44:08.052Z,69.90
2018-01-10T01:44:41.726Z,69.90
2018-01-10T01:45:16.189Z,70.50
2018-01-10T01:45:49.879Z,69.60
2018-01-10T01:46:23.567Z,70.60
2018-01-10T01:46:57.262Z,70.50
2018-01-10T01:47:31.421Z,71.10
2018-01-10T01:48:05.113Z,70.50
2018-01-10T01:48:38.787Z,71.40
2018-01-10T01:49:13.233Z,70.50
2018-01-10T01:49:46.898Z,70.10
2018-01-10T01:50:20.568Z,71.00
2018-01-10T01:50:55.024Z,71.60
2018-01-10T01:51:28.693Z,71.30
2018-01-10T01:52:02.391Z,71.30
2018-01-10T01:52:36.061Z,71.50
2018-01-10T01:53:10.006Z,71.80
2018-01-10T01:53:43.705Z,72.00
2018-01-10T01:54:17.378Z,72.00
2018-01-10T01:54:51.044Z,71.80
2018-01-10T01:55:24.721Z,73.00
2018-01-10T01:55:58.395Z,72.00
2018-01-10T01:56:32.833Z,72.60
2018-01-10T01:57:06.551Z,72.10
2018-01-10T01:57:40.231Z,72.70
2018-01-10T01:58:13.913Z,72.50
2018-01-10T01:58:47.623Z,72.40
2018-01-10T01:59:21.292Z,72.60
2018-01-10T01:59:54.767Z,72.90
2018-01-10T02:00:28.542Z,73.00
2018-01-10T02:01:02.211Z,73.10
2018-01-10T02:01:36.661Z,73.80
2018-01-10T02:02:10.031Z,73.20
2018-01-10T02:02:43.710Z,74.40
2018-01-10T02:03:17.397Z,74.30
2018-01-10T02:03:51.070Z,74.10
2018-01-10T02:04:25.579Z,74.20
2018-01-10T02:04:59.443Z,74.70
2018-01-10T02:05:33.122Z,74.90
2018-01-10T02:06:07.222Z,75.60
2018-01-10T02:06:40.916Z,75.10
2018-01-10T02:07:14.623Z,75.70
2018-01-10T02:07:48.289Z,75.90
2018-01-10T02:08:21.949Z,75.70
2018-01-10T02:08:55.630Z,76.10
2018-01-10T02:09:29.311Z,76.00
2018-01-10T02:10:03.746Z,75.70
2018-01-10T02:10:37.417Z,75.10
2018-01-10T02:11:11.090Z,75.60
2018-01-10T02:11:45.556Z,75.90
2018-01-10T02:12:19.699Z,75.70
2018-01-10T02:12:53.401Z,76.80
2018-01-10T02:13:27.072Z,77.10
2018-01-10T02:14:01.508Z,76.60
2018-01-10T02:14:35.185Z,77.40
2018-01-10T02:15:08.861Z,76.90
2018-01-10T02:15:43.386Z,77.20
2018-01-10T02:16:17.050Z,76.80
2018-01-10T02:16:51.492Z,77.30
2018-01-10T02:17:25.182Z,77.20
2018-01-10T02:17:58.851Z,77.90
2018-01-10T02:18:33.290Z,77.50
2018-01-10T02:19:06.958Z,77.40
2018-01-10T02:19:39.965Z,77.80
2018-01-10T02:20:12.982Z,78.00
2018-01-10T02:20:46.327Z,77.80
2018-01-10T02:21:19.990Z,78.00
2018-01-10T02:21:53.648Z,77.90
2018-01-10T02:22:28.114Z,78.50
2018-01-10T02:23:01.780Z,78.80
2018-01-10T02:23:35.453Z,78.20
2018-01-10T02:24:09.117Z,78.30
2018-01-10T02:24:42.792Z,79.40
2018-01-10T02:25:16.459Z,78.50
2018-01-10T02:25:50.151Z,78.50
2018-01-10T02:26:23.876Z,78.80
2018-01-10T02:26:57.695Z,79.70
2018-01-10T02:27:31.394Z,79.00
2018-01-10T02:28:05.086Z,78.30
2018-01-10T02:28:38.762Z,79.10
2018-01-10T02:29:12.427Z,79.60
2018-01-10T02:29:46.090Z,79.40
2018-01-10T02:30:19.771Z,79.40
2018-01-10T02:30:53.437Z,80.10
2018-01-10T02:31:26.785Z,80.00
2018-01-10T02:32:01.216Z,80.50
2018-01-10T02:32:34.911Z,80.00
2018-01-10T02:33:08.617Z,80.70
2018-01-10T02:33:42.323Z,80.40
2018-01-10T02:34:15.992Z,80.80
2018-01-10T02:34:49.667Z,80.30
2018-01-10T02:35:23.366Z,80.30
2018-01-10T02:35:57.034Z,80.50
2018-01-10T02:36:30.707Z,80.20
2018-01-10T02:37:04.386Z,80.30
2018-01-10T02:37:39.609Z,79.90
2018-01-10T02:38:13.278Z,80.20
2018-01-10T02:38:46.956Z,80.50
2018-01-10T02:39:20.633Z,80.70
2018-01-10T02:39:54.312Z,80.70
2018-01-10T02:40:27.992Z,80.90
2018-01-10T02:41:01.654Z,81.10
2018-01-10T02:41:36.834Z,80.90
2018-01-10T02:43:10.134Z,80.80
2018-01-10T02:43:43.793Z,80.80
2018-01-10T02:44:17.470Z,81.30
2018-01-10T02:44:51.136Z,81.20
2018-01-10T02:45:24.811Z,81.70
2018-01-10T02:45:58.474Z,81.50
2018-01-10T02:46:32.138Z,82.10
2018-01-10T02:47:05.803Z,82.30
2018-01-10T02:47:40.234Z,82.40
2018-01-10T02:48:13.945Z,81.80
2018-01-10T02:48:47.613Z,82.70
2018-01-10T02:49:22.052Z,82.40
2018-01-10T02:49:55.710Z,82.00
2018-01-10T02:50:29.377Z,82.50
2018-01-10T02:51:03.806Z,82.40
2018-01-10T02:51:37.478Z,82.20
2018-01-10T02:52:11.906Z,82.30
2018-01-10T02:52:45.570Z,82.20
2018-01-10T02:53:20.038Z,83.80
2018-01-10T02:53:53.727Z,83.90
2018-01-10T02:54:27.418Z,82.80
2018-01-10T02:55:01.090Z,82.90
2018-01-10T02:55:34.423Z,83.50
2018-01-10T02:56:08.859Z,82.90
2018-01-10T02:56:42.530Z,82.60
2018-01-10T02:57:16.977Z,83.00
2018-01-10T02:57:50.703Z,82.80
2018-01-10T02:58:24.409Z,83.10
2018-01-10T02:58:58.288Z,83.20
2018-01-10T02:59:31.958Z,82.80
2018-01-10T03:00:05.095Z,83.10
2018-01-10T03:00:38.450Z,83.70
2018-01-10T03:01:12.106Z,84.00
2018-01-10T03:01:45.790Z,84.70
2018-01-10T03:02:19.482Z,83.90
2018-01-10T03:02:53.167Z,84.70
2018-01-10T03:03:26.857Z,84.10
2018-01-10T03:04:00.533Z,84.20
2018-01-10T03:04:34.194Z,85.10
2018-01-10T03:05:09.478Z,84.20
2018-01-10T03:05:43.190Z,84.50
2018-01-10T03:06:16.871Z,85.00
2018-01-10T03:06:50.560Z,84.70
2018-01-10T03:07:24.223Z,84.50
2018-01-10T03:07:57.882Z,84.50
2018-01-10T03:08:31.584Z,84.70
2018-01-10T03:09:04.602Z,84.70
2018-01-10T03:09:38.266Z,85.00
2018-01-10T03:10:11.607Z,85.10
2018-01-10T03:10:46.026Z,84.80
2018-01-10T03:11:19.691Z,84.60
2018-01-10T03:11:54.122Z,86.70
2018-01-10T03:12:27.811Z,86.60
2018-01-10T03:13:01.490Z,85.90
2018-01-10T03:13:35.202Z,85.60
2018-01-10T03:14:08.892Z,85.30
2018-01-10T03:14:42.570Z,85.00
2018-01-10T03:15:16.250Z,84.50
2018-01-10T03:15:50.857Z,85.00
2018-01-10T03:16:25.345Z,84.70
2018-01-10T03:16:59.162Z,84.30
2018-01-10T03:17:33.599Z,85.00
2018-01-10T03:18:07.281Z,84.90
2018-01-10T03:18:40.986Z,84.90
2018-01-10T03:19:14.660Z,84.90
2018-01-10T03:19:48.042Z,85.20
2018-01-10T03:20:21.722Z,85.60
2018-01-10T03:20:55.401Z,85.10
2018-01-10T03:21:29.834Z,85.10
2018-01-10T03:22:03.522Z,85.00
2018-01-10T03:22:37.219Z,85.20
2018-01-10T03:23:10.884Z,85.30
2018-01-10T03:23:45.351Z,85.20
2018-01-10T03:24:19.022Z,85.30
2018-01-10T03:24:52.699Z,84.90
2018-01-10T03:25:26.362Z,85.50
2018-01-10T03:26:00.033Z,85.20
2018-01-10T03:26:34.471Z,85.20
2018-01-10T03:27:08.138Z,84.70
2018-01-10T03:27:42.581Z,85.10
2018-01-10T03:28:16.257Z,84.80
2018-01-10T03:28:49.966Z,85.00
2018-01-10T03:29:23.627Z,85.10
2018-01-10T03:29:57.306Z,85.00
2018-01-10T03:30:31.747Z,85.00
2018-01-10T03:31:05.103Z,84.80
2018-01-10T03:31:39.537Z,85.10
2018-01-10T03:32:13.194Z,84.90
2018-01-10T03:32:46.862Z,85.20
2018-01-10T03:33:21.307Z,84.80
2018-01-10T03:33:55.013Z,84.60
2018-01-10T03:34:28.694Z,85.00
2018-01-10T03:35:02.366Z,85.00
2018-01-10T03:35:36.036Z,84.70
2018-01-10T03:36:10.473Z,85.00
2018-01-10T03:36:44.158Z,84.50
2018-01-10T03:37:17.839Z,84.40
2018-01-10T03:37:51.526Z,84.70
2018-01-10T03:38:25.204Z,84.70
2018-01-10T03:38:59.686Z,85.00
2018-01-10T03:39:33.352Z,84.70
2018-01-10T03:40:07.018Z,84.80
2018-01-10T03:40:40.709Z,84.80
2018-01-10T03:41:14.053Z,84.70
2018-01-10T03:41:47.730Z,84.90
2018-01-10T03:42:22.918Z,85.00
2018-01-10T03:42:56.592Z,84.90
2018-01-10T03:43:30.266Z,85.20
2018-01-10T03:44:04.741Z,85.20
2018-01-10T03:44:38.430Z,85.10
2018-01-10T03:45:12.114Z,85.10
2018-01-10T03:45:45.778Z,85.40
2018-01-10T03:46:19.462Z,85.20
2018-01-10T03:46:53.139Z,85.50
2018-01-10T03:47:26.813Z,85.40
2018-01-10T03:48:01.251Z,85.30
2018-01-10T03:48:34.926Z,85.10
2018-01-10T03:49:08.618Z,85.10
2018-01-10T03:49:42.303Z,85.60
2018-01-10T03:50:15.973Z,85.20
2018-01-10T03:50:50.415Z,85.80
2018-01-10T03:51:24.091Z,85.60
2018-01-10T03:51:57.769Z,85.80
2018-01-10T03:52:31.429Z,85.20
2018-01-10T03:53:05.112Z,85.20
2018-01-10T03:53:38.784Z,85.40
2018-01-10T03:54:12.504Z,85.10
2018-01-10T03:54:46.945Z,85.10
2018-01-10T03:55:20.619Z,84.90
2018-01-10T03:55:55.042Z,85.40
2018-01-10T03:56:28.713Z,84.90
2018-01-10T03:57:03.153Z,85.00
2018-01-10T03:57:36.828Z,85.00
2018-01-10T03:58:10.517Z,85.30
2018-01-10T03:58:44.194Z,85.10
2018-01-10T03:59:17.898Z,85.20
2018-01-10T03:59:51.562Z,84.80
2018-01-10T04:00:26.011Z,85.20
2018-01-10T04:00:59.683Z,85.00
2018-01-10T04:01:33.344Z,85.00
2018-01-10T04:02:07.786Z,84.90
2018-01-10T04:02:41.468Z,85.10
2018-01-10T04:03:15.294Z,85.00
2018-01-10T04:03:48.967Z,85.10
2018-01-10T04:04:22.661Z,85.50
2018-01-10T04:04:56.326Z,85.30
2018-01-10T04:05:29.988Z,85.70
2018-01-10T04:06:04.428Z,86.10
2018-01-10T04:06:38.089Z,85.20
2018-01-10T04:07:12.538Z,85.40
2018-01-10T04:07:46.218Z,85.40
2018-01-10T04:08:19.878Z,85.80
2018-01-10T04:08:53.543Z,85.20
2018-01-10T04:09:28.770Z,85.40
2018-01-10T04:10:02.460Z,85.70
2018-01-10T04:10:36.130Z,85.40
2018-01-10T04:11:09.799Z,86.00
2018-01-10T04:11:43.489Z,85.80
2018-01-10T04:12:17.183Z,85.90
2018-01-10T04:12:50.849Z,86.00
2018-01-10T04:13:24.522Z,86.10
2018-01-10T04:13:58.968Z,86.20
2018-01-10T04:14:32.680Z,85.80
2018-01-10T04:15:06.355Z,86.00
2018-01-10T04:15:40.034Z,85.90
2018-01-10T04:16:13.726Z,85.80
2018-01-10T04:16:47.419Z,86.30
2018-01-10T04:17:21.099Z,86.30
2018-01-10T04:17:54.752Z,86.10
2018-01-10T04:18:28.419Z,86.00
2018-01-10T04:19:02.097Z,86.30
2018-01-10T04:19:35.800Z,86.30
2018-01-10T04:20:09.478Z,86.40
2018-01-10T04:20:43.160Z,86.30
2018-01-10T04:21:16.815Z,86.20
2018-01-10T04:21:50.500Z,86.50
2018-01-10T04:22:24.946Z,85.80
2018-01-10T04:22:58.621Z,85.90
2018-01-10T04:23:32.293Z,86.30
2018-01-10T04:24:05.952Z,86.00
2018-01-10T04:24:39.648Z,86.00
2018-01-10T04:25:14.099Z,86.10
2018-01-10T04:25:47.777Z,85.80
2018-01-10T04:26:21.451Z,86.00
2018-01-10T04:26:55.120Z,86.00
2018-01-10T04:27:28.778Z,85.80
2018-01-10T04:28:02.454Z,85.40
2018-01-10T04:28:36.114Z,86.10
2018-01-10T04:29:09.779Z,86.40
2018-01-10T04:29:43.472Z,86.10
2018-01-10T04:30:17.903Z,86.40
2018-01-10T04:30:51.590Z,85.90
2018-01-10T04:31:25.250Z,86.40
2018-01-10T04:31:58.910Z,86.00
2018-01-10T04:32:32.591Z,86.20
2018-01-10T04:33:06.255Z,85.90
2018-01-10T04:33:39.604Z,86.50
2018-01-10T04:34:14.070Z,86.00
2018-01-10T04:34:47.782Z,85.80
2018-01-10T04:35:21.445Z,85.80
2018-01-10T04:35:55.108Z,86.10
2018-01-10T04:36:28.773Z,86.00
2018-01-10T04:37:03.240Z,86.00
2018-01-10T04:37:36.921Z,85.70
2018-01-10T04:38:10.591Z,85.80
2018-01-10T04:38:44.268Z,85.60
2018-01-10T04:39:17.959Z,85.80
2018-01-10T04:39:51.658Z,86.10
2018-01-10T04:40:25.351Z,86.10
2018-01-10T04:40:59.029Z,85.80
2018-01-10T04:41:32.698Z,85.90
2018-01-10T04:42:07.146Z,85.80
2018-01-10T04:42:40.827Z,85.80
2018-01-10T04:43:15.447Z,85.70
2018-01-10T04:43:49.114Z,85.40
2018-01-10T04:44:22.810Z,85.80
2018-01-10T04:44:56.501Z,85.90
2018-01-10T04:45:30.267Z,85.80
2018-01-10T04:46:04.722Z,86.00
2018-01-10T04:46:38.393Z,86.00
2018-01-10T04:47:11.762Z,86.30
2018-01-10T04:47:46.208Z,86.30
2018-01-10T04:48:19.887Z,85.90
2018-01-10T04:48:53.577Z,86.20
2018-01-10T04:49:27.242Z,86.00
2018-01-10T04:50:01.722Z,85.90
2018-01-10T04:50:35.376Z,85.80
2018-01-10T04:51:09.071Z,86.00
2018-01-10T04:51:42.764Z,85.90
2018-01-10T04:52:16.453Z,86.00
2018-01-10T04:52:50.159Z,85.80
2018-01-10T04:53:23.855Z,85.80
2018-01-10T04:53:57.523Z,85.90
2018-01-10T04:54:31.190Z,86.20
2018-01-10T04:55:04.922Z,86.00
2018-01-10T04:55:38.592Z,86.00
2018-01-10T04:56:12.267Z,86.30
2018-01-10T04:56:45.952Z,86.00
2018-01-10T04:57:19.904Z,86.40
2018-01-10T04:57:54.355Z,86.30
2018-01-10T04:58:28.059Z,85.70
2018-01-10T04:59:01.735Z,86.20
2018-01-10T04:59:35.404Z,86.50
2018-01-10T05:00:09.115Z,86.10
2018-01-10T05:00:42.815Z,86.30
2018-01-10T05:01:16.481Z,86.30
2018-01-10T05:01:50.135Z,86.40
2018-01-10T05:02:24.574Z,86.80
2018-01-10T05:02:58.247Z,86.20
2018-01-10T05:03:32.697Z,87.00
2018-01-10T05:04:06.538Z,86.50
2018-01-10T05:04:40.219Z,86.20
2018-01-10T05:05:13.926Z,86.10
2018-01-10T05:05:48.356Z,86.30
2018-01-10T05:06:22.014Z,86.00
2018-01-10T05:06:56.449Z,86.10
2018-01-10T05:07:30.118Z,85.80
2018-01-10T05:08:04.560Z,86.30
2018-01-10T05:08:38.246Z,86.50
2018-01-10T05:09:11.929Z,86.00
2018-01-10T05:09:45.603Z,86.30
2018-01-10T05:10:20.075Z,85.90
2018-01-10T05:10:53.738Z,86.00
2018-01-10T05:11:27.469Z,86.70
2018-01-10T05:12:01.298Z,86.10
2018-01-10T05:12:34.967Z,86.50
2018-01-10T05:13:09.396Z,86.50
2018-01-10T05:13:43.080Z,86.00
2018-01-10T05:14:16.746Z,85.90
2018-01-10T05:14:50.423Z,86.40
2018-01-10T05:15:24.138Z,86.40
2018-01-10T05:15:58.558Z,86.10
2018-01-10T05:16:32.245Z,85.90
2018-01-10T05:17:05.907Z,86.20
2018-01-10T05:17:39.579Z,85.80
2018-01-10T05:18:13.242Z,85.80
2018-01-10T05:18:46.903Z,85.80
2018-01-10T05:19:20.557Z,86.00
2018-01-10T05:19:54.232Z,86.40
2018-01-10T05:20:27.930Z,85.80
2018-01-10T05:21:01.590Z,86.00
2018-01-10T05:21:35.249Z,86.60
2018-01-10T05:22:08.955Z,86.40
2018-01-10T05:22:42.621Z,86.50
2018-01-10T05:23:17.061Z,86.40
2018-01-10T05:23:50.730Z,86.30
2018-01-10T05:24:24.406Z,87.10
2018-01-10T05:24:58.084Z,86.80
2018-01-10T05:25:32.539Z,87.30
2018-01-10T05:26:06.196Z,86.50
2018-01-10T05:26:39.869Z,86.60
2018-01-10T05:27:14.301Z,86.60
2018-01-10T05:27:47.984Z,86.30
2018-01-10T05:28:21.644Z,87.20
2018-01-10T05:28:56.817Z,86.20
2018-01-10T05:29:30.483Z,86.20
2018-01-10T05:30:04.915Z,86.40
2018-01-10T05:30:38.610Z,86.20
2018-01-10T05:31:12.296Z,86.20
2018-01-10T05:31:45.959Z,86.60
2018-01-10T05:32:20.395Z,86.20
2018-01-10T05:32:54.068Z,86.40
2018-01-10T05:33:27.754Z,86.20
2018-01-10T05:34:01.411Z,86.40
2018-01-10T05:34:35.121Z,86.30
2018-01-10T05:35:09.562Z,86.00
2018-01-10T05:35:43.252Z,86.00
2018-01-10T05:36:16.918Z,86.20
2018-01-10T05:36:54.440Z,86.40
2018-01-10T05:37:28.109Z,86.10
2018-01-10T05:38:01.770Z,86.10
2018-01-10T05:38:36.206Z,86.10
2018-01-10T05:39:09.870Z,85.60
2018-01-10T05:39:44.300Z,85.90
2018-01-10T05:40:17.980Z,85.70
2018-01-10T05:40:51.713Z,86.20
2018-01-10T05:41:25.375Z,86.00
2018-01-10T05:41:59.050Z,85.80
2018-01-10T05:42:32.723Z,85.80
2018-01-10T05:43:07.174Z,86.00
2018-01-10T05:43:40.851Z,85.90
2018-01-10T05:44:14.526Z,86.20
2018-01-10T05:44:48.210Z,86.00
2018-01-10T05:45:21.886Z,86.40
2018-01-10T05:45:56.357Z,86.40
2018-01-10T05:46:30.024Z,86.10
2018-01-10T05:47:03.697Z,86.00
2018-01-10T05:47:37.364Z,85.90
2018-01-10T05:48:11.805Z,85.70
2018-01-10T05:48:45.458Z,85.70
2018-01-10T05:49:19.928Z,86.00
2018-01-10T05:49:53.585Z,86.00
2018-01-10T05:50:27.278Z,86.30
2018-01-10T05:51:00.997Z,86.00
2018-01-10T05:51:34.663Z,85.90
2018-01-10T05:52:08.334Z,85.50
2018-01-10T05:52:42.021Z,85.80
2018-01-10T05:53:16.655Z,85.90
2018-01-10T05:53:50.334Z,85.90
2018-01-10T05:54:24.004Z,86.20
2018-01-10T05:54:57.370Z,86.40
2018-01-10T05:55:31.033Z,86.60
2018-01-10T05:56:04.742Z,86.50
2018-01-10T05:56:39.190Z,86.60
2018-01-10T05:57:12.868Z,86.20
2018-01-10T05:57:46.533Z,86.50
2018-01-10T05:58:20.978Z,86.30
2018-01-10T05:58:54.643Z,86.90
2018-01-10T05:59:29.112Z,86.40
2018-01-10T06:00:02.823Z,86.40
2018-01-10T06:00:36.539Z,87.20
2018-01-10T06:01:10.287Z,87.00
2018-01-10T06:01:43.945Z,86.60
2018-01-10T06:02:17.633Z,86.60
2018-01-10T06:02:51.314Z,86.30
2018-01-10T06:03:24.994Z,86.50
2018-01-10T06:03:58.672Z,86.50
2018-01-10T06:04:33.119Z,86.20
2018-01-10T06:05:06.832Z,86.10
2018-01-10T06:05:40.508Z,86.30
2018-01-10T06:06:14.026Z,86.10
2018-01-10T06:06:48.463Z,86.20
2018-01-10T06:07:22.138Z,86.20
2018-01-10T06:07:56.580Z,86.90
2018-01-10T06:08:30.250Z,86.40
2018-01-10T06:09:03.407Z,86.40
2018-01-10T06:09:37.839Z,86.30
2018-01-10T06:10:11.515Z,86.20
2018-01-10T06:10:45.946Z,86.10
2018-01-10T06:11:19.651Z,86.00
2018-01-10T06:11:53.330Z,86.40
2018-01-10T06:12:26.985Z,87.00
2018-01-10T06:13:01.488Z,86.40
2018-01-10T06:13:35.917Z,87.00
2018-01-10T06:14:09.262Z,86.30
2018-01-10T06:14:42.922Z,86.00
2018-01-10T06:15:16.602Z,86.40
2018-01-10T06:15:50.092Z,86.20
2018-01-10T06:16:23.790Z,86.40
2018-01-10T06:16:57.471Z,86.20
2018-01-10T06:17:31.159Z,86.30
2018-01-10T06:18:04.835Z,86.30
2018-01-10T06:18:38.514Z,86.20
2018-01-10T06:19:12.190Z,86.10
2018-01-10T06:19:45.863Z,86.20
2018-01-10T06:20:19.541Z,86.30
2018-01-10T06:20:53.205Z,86.50
2018-01-10T06:21:26.920Z,86.00
2018-01-10T06:22:00.596Z,86.20
2018-01-10T06:22:34.300Z,86.10
2018-01-10T06:23:07.975Z,86.10
2018-01-10T06:23:41.649Z,86.40
2018-01-10T06:24:15.334Z,86.30
2018-01-10T06:24:49.010Z,86.40
2018-01-10T06:25:22.698Z,86.30
2018-01-10T06:25:56.376Z,86.20
2018-01-10T06:26:30.078Z,86.30
2018-01-10T06:27:03.764Z,86.60
2018-01-10T06:27:37.437Z,86.40
2018-01-10T06:28:14.442Z,86.00
2018-01-10T06:28:51.597Z,86.10
2018-01-10T06:29:25.375Z,85.90
2018-01-10T06:29:59.051Z,85.80
2018-01-10T06:30:32.729Z,85.90
2018-01-10T06:31:06.455Z,86.00
2018-01-10T06:31:40.301Z,85.80
2018-01-10T06:32:13.988Z,86.00
2018-01-10T06:32:47.645Z,86.10
2018-01-10T06:33:21.339Z,85.90
2018-01-10T06:33:55.001Z,85.80
2018-01-10T06:34:28.776Z,85.80
2018-01-10T06:35:03.270Z,86.00
2018-01-10T06:35:37.717Z,86.30
2018-01-10T06:36:11.396Z,86.10
2018-01-10T06:36:45.110Z,86.10
2018-01-10T06:37:18.774Z,86.30
2018-01-10T06:37:52.427Z,86.40
2018-01-10T06:38:26.082Z,86.20
2018-01-10T06:38:59.762Z,86.50
2018-01-10T06:39:33.426Z,86.20
2018-01-10T06:40:07.090Z,86.60
2018-01-10T06:40:41.522Z,86.20
2018-01-10T06:41:15.962Z,86.00
2018-01-10T06:41:49.696Z,85.80
2018-01-10T06:42:24.160Z,87.00
2018-01-10T06:42:57.825Z,86.40
2018-01-10T06:43:31.162Z,86.00
2018-01-10T06:44:04.828Z,86.60
2018-01-10T06:44:38.511Z,86.20
2018-01-10T06:45:12.180Z,86.20
2018-01-10T06:45:45.890Z,86.00
2018-01-10T06:46:19.554Z,86.40
2018-01-10T06:46:53.266Z,86.20
2018-01-10T06:47:26.954Z,86.30
2018-01-10T06:48:00.644Z,86.40
2018-01-10T06:48:34.309Z,86.40
2018-01-10T06:49:08.101Z,86.80
2018-01-10T06:49:41.769Z,86.30
2018-01-10T06:50:16.205Z,86.20
2018-01-10T06:50:49.894Z,86.30
2018-01-10T06:51:23.583Z,86.50
2018-01-10T06:51:57.293Z,86.10
2018-01-10T06:52:30.962Z,86.40
2018-01-10T06:53:04.631Z,85.90
2018-01-10T06:53:39.074Z,86.00
2018-01-10T06:54:12.751Z,86.40
2018-01-10T06:54:46.431Z,86.10
2018-01-10T06:55:20.534Z,86.30
2018-01-10T06:55:54.196Z,86.10
2018-01-10T06:56:28.629Z,86.40
2018-01-10T06:57:02.326Z,86.30
2018-01-10T06:57:36.010Z,86.40
2018-01-10T06:58:09.684Z,87.20
2018-01-10T06:58:44.127Z,87.20
2018-01-10T06:59:17.818Z,87.00
2018-01-10T06:59:51.490Z,87.10
2018-01-10T07:00:25.216Z,87.30
2018-01-10T07:00:58.902Z,87.60
2018-01-10T07:01:32.583Z,88.80
2018-01-10T07:02:06.278Z,86.50
2018-01-10T07:02:39.956Z,86.20
2018-01-10T07:03:13.625Z,87.60
2018-01-10T07:03:47.306Z,86.20
2018-01-10T07:04:21.759Z,87.70
2018-01-10T07:04:55.431Z,87.60
2018-01-10T07:05:29.106Z,86.30
2018-01-10T07:06:02.798Z,86.50
2018-01-10T07:06:36.470Z,86.30
2018-01-10T07:07:10.925Z,86.50
2018-01-10T07:07:44.604Z,86.50
2018-01-10T07:08:18.258Z,86.80
2018-01-10T07:08:52.705Z,86.70
2018-01-10T07:09:26.367Z,86.60
2018-01-10T07:10:00.032Z,86.50
2018-01-10T07:10:34.534Z,86.60
2018-01-10T07:11:08.358Z,86.20
2018-01-10T07:11:42.026Z,86.80
2018-01-10T07:12:16.491Z,86.80
2018-01-10T07:12:50.169Z,86.50
2018-01-10T07:13:24.034Z,86.50
2018-01-10T07:13:57.697Z,87.00
2018-01-10T07:14:31.369Z,86.80
2018-01-10T07:15:05.035Z,86.80
2018-01-10T07:15:38.726Z,86.90
2018-01-10T07:16:13.310Z,87.00
2018-01-10T07:16:46.985Z,86.90